sensor_id;sensor_type;location;lat;lon;timestamp;pressure;altitude;pressure_sealevel;temperature;humidity
31771;BME280;18343;50.152;8.182;2023-04-21T00:01:10;97113.84;;;8.38;100.00
31771;BME280;18343;50.152;8.182;2023-04-21T00:03:54;97110.16;;;8.39;100.00
31771;BME280;18343;50.152;8.182;2023-04-21T00:06:39;97109.31;;;8.38;100.00
31771;BME280;18343;50.152;8.182;2023-04-21T00:09:23;97110.53;;;8.36;100.00
31771;BME280;18343;50.152;8.182;2023-04-21T00:12:08;97114.03;;;8.36;100.00
31771;BME280;18343;50.152;8.182;2023-04-21T00:14:53;97116.72;;;8.36;100.00
31771;BME280;18343;50.152;8.182;2023-04-21T00:17:39;97111.81;;;8.40;100.00
31771;BME280;18343;50.152;8.182;2023-04-21T00:20:24;97107.84;;;8.36;100.00
31771;BME280;18343;50.152;8.182;2023-04-21T00:23:09;97108.88;;;8.35;100.00
31771;BME280;18343;50.152;8.182;2023-04-21T00:25:53;97110.41;;;8.29;100.00
31771;BME280;18343;50.152;8.182;2023-04-21T00:28:38;97095.75;;;8.10;100.00
31771;BME280;18343;50.152;8.182;2023-04-21T00:31:23;97099.00;;;7.91;100.00
31771;BME280;18343;50.152;8.182;2023-04-21T00:34:09;97091.41;;;7.80;100.00
31771;BME280;18343;50.152;8.182;2023-04-21T00:36:53;97109.00;;;7.74;100.00
31771;BME280;18343;50.152;8.182;2023-04-21T00:39:38;97103.38;;;7.69;100.00
31771;BME280;18343;50.152;8.182;2023-04-21T00:42:22;97092.41;;;7.64;100.00
31771;BME280;18343;50.152;8.182;2023-04-21T00:45:08;97097.47;;;7.59;100.00
31771;BME280;18343;50.152;8.182;2023-04-21T00:47:52;97094.50;;;7.54;100.00
31771;BME280;18343;50.152;8.182;2023-04-21T00:50:39;97092.56;;;7.48;99.86
31771;BME280;18343;50.152;8.182;2023-04-21T00:53:23;97089.59;;;7.43;99.83
31771;BME280;18343;50.152;8.182;2023-04-21T00:56:07;97092.84;;;7.38;99.63
31771;BME280;18343;50.152;8.182;2023-04-21T00:58:53;97092.72;;;7.32;99.88
31771;BME280;18343;50.152;8.182;2023-04-21T01:01:38;97094.09;;;7.28;100.00
31771;BME280;18343;50.152;8.182;2023-04-21T01:04:22;97085.88;;;7.29;100.00
31771;BME280;18343;50.152;8.182;2023-04-21T01:07:08;97087.19;;;7.33;100.00
31771;BME280;18343;50.152;8.182;2023-04-21T01:09:53;97089.50;;;7.36;100.00
31771;BME280;18343;50.152;8.182;2023-04-21T01:12:46;97094.03;;;7.36;100.00
31771;BME280;18343;50.152;8.182;2023-04-21T01:15:31;97097.06;;;7.33;100.00
31771;BME280;18343;50.152;8.182;2023-04-21T01:18:15;97088.84;;;7.34;100.00
31771;BME280;18343;50.152;8.182;2023-04-21T01:21:00;97094.25;;;7.26;100.00
31771;BME280;18343;50.152;8.182;2023-04-21T01:23:47;97095.50;;;7.16;100.00
31771;BME280;18343;50.152;8.182;2023-04-21T01:26:31;97095.25;;;7.10;100.00
31771;BME280;18343;50.152;8.182;2023-04-21T01:29:17;97095.00;;;6.97;100.00
31771;BME280;18343;50.152;8.182;2023-04-21T01:32:08;97105.22;;;6.94;100.00
31771;BME280;18343;50.152;8.182;2023-04-21T01:34:54;97097.53;;;6.91;100.00
31771;BME280;18343;50.152;8.182;2023-04-21T01:37:39;97096.88;;;6.89;100.00
31771;BME280;18343;50.152;8.182;2023-04-21T01:40:25;97104.91;;;6.89;100.00
31771;BME280;18343;50.152;8.182;2023-04-21T01:43:10;97099.91;;;6.86;100.00
31771;BME280;18343;50.152;8.182;2023-04-21T01:45:55;97100.75;;;6.86;100.00
31771;BME280;18343;50.152;8.182;2023-04-21T01:48:40;97103.41;;;6.86;100.00
31771;BME280;18343;50.152;8.182;2023-04-21T01:51:24;97098.91;;;6.87;100.00
31771;BME280;18343;50.152;8.182;2023-04-21T01:54:09;97104.44;;;6.85;100.00
31771;BME280;18343;50.152;8.182;2023-04-21T01:56:55;97112.81;;;6.82;100.00
31771;BME280;18343;50.152;8.182;2023-04-21T01:59:40;97105.81;;;6.81;100.00
31771;BME280;18343;50.152;8.182;2023-04-21T02:02:25;97097.31;;;6.77;100.00
31771;BME280;18343;50.152;8.182;2023-04-21T02:05:10;97104.69;;;6.75;100.00
31771;BME280;18343;50.152;8.182;2023-04-21T02:07:55;97111.84;;;6.75;100.00
31771;BME280;18343;50.152;8.182;2023-04-21T02:10:39;97105.03;;;6.72;100.00
31771;BME280;18343;50.152;8.182;2023-04-21T02:13:26;97107.03;;;6.70;100.00
31771;BME280;18343;50.152;8.182;2023-04-21T02:16:10;97097.72;;;6.66;100.00
31771;BME280;18343;50.152;8.182;2023-04-21T02:18:56;97100.56;;;6.65;100.00
31771;BME280;18343;50.152;8.182;2023-04-21T02:21:40;97105.25;;;6.63;100.00
31771;BME280;18343;50.152;8.182;2023-04-21T02:24:25;97093.91;;;6.61;100.00
31771;BME280;18343;50.152;8.182;2023-04-21T02:27:09;97100.72;;;6.63;100.00
31771;BME280;18343;50.152;8.182;2023-04-21T02:29:55;97097.41;;;6.61;100.00
31771;BME280;18343;50.152;8.182;2023-04-21T02:32:40;97106.06;;;6.63;100.00
31771;BME280;18343;50.152;8.182;2023-04-21T02:35:25;97101.91;;;6.61;100.00
31771;BME280;18343;50.152;8.182;2023-04-21T02:38:09;97109.25;;;6.59;100.00
31771;BME280;18343;50.152;8.182;2023-04-21T02:40:55;97110.47;;;6.56;100.00
31771;BME280;18343;50.152;8.182;2023-04-21T02:43:39;97105.94;;;6.57;100.00
31771;BME280;18343;50.152;8.182;2023-04-21T02:46:25;97102.56;;;6.63;100.00
31771;BME280;18343;50.152;8.182;2023-04-21T02:49:10;97104.41;;;6.62;100.00
31771;BME280;18343;50.152;8.182;2023-04-21T02:51:54;97114.91;;;6.64;100.00
31771;BME280;18343;50.152;8.182;2023-04-21T02:54:39;97112.25;;;6.64;100.00
31771;BME280;18343;50.152;8.182;2023-04-21T02:57:23;97111.25;;;6.65;100.00
31771;BME280;18343;50.152;8.182;2023-04-21T03:00:09;97113.44;;;6.61;100.00
31771;BME280;18343;50.152;8.182;2023-04-21T03:02:55;97114.78;;;6.57;100.00
31771;BME280;18343;50.152;8.182;2023-04-21T03:05:40;97116.63;;;6.57;100.00
31771;BME280;18343;50.152;8.182;2023-04-21T03:08:25;97110.34;;;6.50;100.00
31771;BME280;18343;50.152;8.182;2023-04-21T03:11:10;97108.50;;;6.50;100.00
31771;BME280;18343;50.152;8.182;2023-04-21T03:13:54;97123.03;;;6.48;100.00
31771;BME280;18343;50.152;8.182;2023-04-21T03:16:39;97111.22;;;6.42;100.00
31771;BME280;18343;50.152;8.182;2023-04-21T03:19:25;97114.56;;;6.36;100.00
31771;BME280;18343;50.152;8.182;2023-04-21T03:22:09;97110.56;;;6.32;100.00
31771;BME280;18343;50.152;8.182;2023-04-21T03:24:54;97110.75;;;6.30;100.00
31771;BME280;18343;50.152;8.182;2023-04-21T03:27:39;97116.47;;;6.27;100.00
31771;BME280;18343;50.152;8.182;2023-04-21T03:30:23;97116.97;;;6.23;100.00
31771;BME280;18343;50.152;8.182;2023-04-21T03:33:08;97122.66;;;6.20;100.00
31771;BME280;18343;50.152;8.182;2023-04-21T03:35:54;97121.31;;;6.24;100.00
31771;BME280;18343;50.152;8.182;2023-04-21T03:38:38;97115.63;;;6.27;100.00
31771;BME280;18343;50.152;8.182;2023-04-21T03:41:23;97122.16;;;6.24;100.00
31771;BME280;18343;50.152;8.182;2023-04-21T03:44:07;97128.00;;;6.20;100.00
31771;BME280;18343;50.152;8.182;2023-04-21T03:46:52;97127.69;;;6.15;100.00
31771;BME280;18343;50.152;8.182;2023-04-21T03:49:37;97123.53;;;6.12;100.00
31771;BME280;18343;50.152;8.182;2023-04-21T03:52:23;97120.50;;;6.15;100.00
31771;BME280;18343;50.152;8.182;2023-04-21T03:55:08;97117.66;;;6.17;100.00
31771;BME280;18343;50.152;8.182;2023-04-21T03:57:52;97119.19;;;6.11;100.00
31771;BME280;18343;50.152;8.182;2023-04-21T04:00:37;97116.72;;;6.01;100.00
31771;BME280;18343;50.152;8.182;2023-04-21T04:03:23;97113.22;;;6.01;100.00
31771;BME280;18343;50.152;8.182;2023-04-21T04:06:07;97106.22;;;6.00;100.00
31771;BME280;18343;50.152;8.182;2023-04-21T04:08:53;97106.56;;;5.97;100.00
31771;BME280;18343;50.152;8.182;2023-04-21T04:11:38;97104.25;;;5.94;100.00
31771;BME280;18343;50.152;8.182;2023-04-21T04:14:23;97109.91;;;5.91;100.00
31771;BME280;18343;50.152;8.182;2023-04-21T04:17:07;97102.09;;;5.89;100.00
31771;BME280;18343;50.152;8.182;2023-04-21T04:19:52;97106.88;;;5.86;100.00
31771;BME280;18343;50.152;8.182;2023-04-21T04:22:37;97106.41;;;5.82;100.00
31771;BME280;18343;50.152;8.182;2023-04-21T04:25:24;97101.06;;;5.82;100.00
31771;BME280;18343;50.152;8.182;2023-04-21T04:28:09;97113.63;;;5.73;100.00
31771;BME280;18343;50.152;8.182;2023-04-21T04:30:55;97113.44;;;5.67;100.00
31771;BME280;18343;50.152;8.182;2023-04-21T04:33:40;97109.28;;;5.64;100.00
31771;BME280;18343;50.152;8.182;2023-04-21T04:36:24;97108.47;;;5.64;100.00
31771;BME280;18343;50.152;8.182;2023-04-21T04:39:09;97113.28;;;5.60;100.00
31771;BME280;18343;50.152;8.182;2023-04-21T04:41:55;97110.13;;;5.57;100.00
31771;BME280;18343;50.152;8.182;2023-04-21T04:44:40;97112.78;;;5.57;100.00
31771;BME280;18343;50.152;8.182;2023-04-21T04:47:24;97104.97;;;5.55;100.00
31771;BME280;18343;50.152;8.182;2023-04-21T04:50:09;97105.78;;;5.56;100.00
31771;BME280;18343;50.152;8.182;2023-04-21T04:52:55;97113.78;;;5.56;100.00
31771;BME280;18343;50.152;8.182;2023-04-21T04:55:40;97116.97;;;5.51;100.00
31771;BME280;18343;50.152;8.182;2023-04-21T04:58:25;97113.78;;;5.48;100.00
31771;BME280;18343;50.152;8.182;2023-04-21T05:01:11;97115.00;;;5.45;100.00
31771;BME280;18343;50.152;8.182;2023-04-21T05:03:56;97110.66;;;5.44;100.00
31771;BME280;18343;50.152;8.182;2023-04-21T05:06:41;97119.00;;;5.41;100.00
31771;BME280;18343;50.152;8.182;2023-04-21T05:09:26;97119.81;;;5.41;100.00
31771;BME280;18343;50.152;8.182;2023-04-21T05:12:11;97125.00;;;5.43;100.00
31771;BME280;18343;50.152;8.182;2023-04-21T05:14:57;97122.16;;;5.44;100.00
31771;BME280;18343;50.152;8.182;2023-04-21T05:17:41;97125.81;;;5.43;100.00
31771;BME280;18343;50.152;8.182;2023-04-21T05:20:26;97115.31;;;5.42;100.00
31771;BME280;18343;50.152;8.182;2023-04-21T05:23:10;97118.81;;;5.42;100.00
31771;BME280;18343;50.152;8.182;2023-04-21T05:25:55;97117.16;;;5.41;100.00
31771;BME280;18343;50.152;8.182;2023-04-21T05:28:40;97122.31;;;5.43;100.00
31771;BME280;18343;50.152;8.182;2023-04-21T05:31:26;97126.81;;;5.42;100.00
31771;BME280;18343;50.152;8.182;2023-04-21T05:34:11;97119.31;;;5.38;100.00
31771;BME280;18343;50.152;8.182;2023-04-21T05:36:56;97115.81;;;5.37;100.00
31771;BME280;18343;50.152;8.182;2023-04-21T05:39:40;97121.00;;;5.39;100.00
31771;BME280;18343;50.152;8.182;2023-04-21T05:42:25;97119.31;;;5.38;100.00
31771;BME280;18343;50.152;8.182;2023-04-21T05:45:09;97114.66;;;5.40;100.00
31771;BME280;18343;50.152;8.182;2023-04-21T05:47:55;97108.34;;;5.41;100.00
31771;BME280;18343;50.152;8.182;2023-04-21T05:50:40;97109.34;;;5.40;100.00
31771;BME280;18343;50.152;8.182;2023-04-21T05:53:24;97114.00;;;5.38;100.00
31771;BME280;18343;50.152;8.182;2023-04-21T05:56:09;97121.16;;;5.37;100.00
31771;BME280;18343;50.152;8.182;2023-04-21T05:58:54;97122.31;;;5.43;100.00
31771;BME280;18343;50.152;8.182;2023-04-21T06:01:39;97123.00;;;5.45;100.00
31771;BME280;18343;50.152;8.182;2023-04-21T06:04:25;97117.28;;;5.48;100.00
31771;BME280;18343;50.152;8.182;2023-04-21T06:07:10;97115.13;;;5.52;100.00
31771;BME280;18343;50.152;8.182;2023-04-21T06:09:55;97108.28;;;5.57;100.00
31771;BME280;18343;50.152;8.182;2023-04-21T06:12:39;97119.13;;;5.56;100.00
31771;BME280;18343;50.152;8.182;2023-04-21T06:15:24;97120.28;;;5.61;100.00
31771;BME280;18343;50.152;8.182;2023-04-21T06:18:08;97120.78;;;5.65;100.00
31771;BME280;18343;50.152;8.182;2023-04-21T06:20:55;97121.94;;;5.70;100.00
31771;BME280;18343;50.152;8.182;2023-04-21T06:23:40;97119.94;;;5.72;100.00
31771;BME280;18343;50.152;8.182;2023-04-21T06:26:24;97117.56;;;5.77;100.00
31771;BME280;18343;50.152;8.182;2023-04-21T06:29:09;97112.22;;;5.86;100.00
31771;BME280;18343;50.152;8.182;2023-04-21T06:31:53;97111.41;;;5.93;100.00
31771;BME280;18343;50.152;8.182;2023-04-21T06:34:38;97111.91;;;5.89;100.00
31771;BME280;18343;50.152;8.182;2023-04-21T06:37:24;97119.75;;;5.90;100.00
31771;BME280;18343;50.152;8.182;2023-04-21T06:40:11;97118.06;;;5.97;100.00
31771;BME280;18343;50.152;8.182;2023-04-21T06:42:56;97115.53;;;6.04;100.00
31771;BME280;18343;50.152;8.182;2023-04-21T06:45:40;97117.69;;;6.08;100.00
31771;BME280;18343;50.152;8.182;2023-04-21T06:48:25;97115.16;;;6.23;100.00
31771;BME280;18343;50.152;8.182;2023-04-21T06:51:11;97120.41;;;6.39;100.00
31771;BME280;18343;50.152;8.182;2023-04-21T06:53:57;97118.84;;;6.53;100.00
31771;BME280;18343;50.152;8.182;2023-04-21T06:56:42;97119.25;;;6.65;100.00
31771;BME280;18343;50.152;8.182;2023-04-21T06:59:27;97114.53;;;6.75;100.00
31771;BME280;18343;50.152;8.182;2023-04-21T07:02:11;97124.78;;;6.86;100.00
31771;BME280;18343;50.152;8.182;2023-04-21T07:04:56;97124.75;;;6.94;100.00
31771;BME280;18343;50.152;8.182;2023-04-21T07:07:40;97122.72;;;6.96;100.00
31771;BME280;18343;50.152;8.182;2023-04-21T07:10:27;97119.88;;;6.98;100.00
31771;BME280;18343;50.152;8.182;2023-04-21T07:13:12;97118.00;;;7.06;100.00
31771;BME280;18343;50.152;8.182;2023-04-21T07:15:56;97121.91;;;7.19;100.00
31771;BME280;18343;50.152;8.182;2023-04-21T07:18:41;97116.13;;;7.30;100.00
31771;BME280;18343;50.152;8.182;2023-04-21T07:21:25;97115.69;;;7.41;100.00
31771;BME280;18343;50.152;8.182;2023-04-21T07:24:10;97123.66;;;7.49;100.00
31771;BME280;18343;50.152;8.182;2023-04-21T07:26:56;97110.38;;;7.56;100.00
31771;BME280;18343;50.152;8.182;2023-04-21T07:29:40;97113.00;;;7.64;100.00
31771;BME280;18343;50.152;8.182;2023-04-21T07:32:25;97118.72;;;7.75;100.00
31771;BME280;18343;50.152;8.182;2023-04-21T07:35:10;97116.25;;;7.89;100.00
31771;BME280;18343;50.152;8.182;2023-04-21T07:37:54;97105.72;;;8.02;100.00
31771;BME280;18343;50.152;8.182;2023-04-21T07:40:39;97106.91;;;8.14;100.00
31771;BME280;18343;50.152;8.182;2023-04-21T07:43:25;97103.00;;;8.31;100.00
31771;BME280;18343;50.152;8.182;2023-04-21T07:46:09;97112.81;;;8.54;100.00
31771;BME280;18343;50.152;8.182;2023-04-21T07:48:54;97110.75;;;8.70;100.00
31771;BME280;18343;50.152;8.182;2023-04-21T07:51:39;97113.81;;;8.89;100.00
31771;BME280;18343;50.152;8.182;2023-04-21T07:54:23;97109.69;;;9.07;100.00
31771;BME280;18343;50.152;8.182;2023-04-21T07:57:08;97104.63;;;9.40;100.00
31771;BME280;18343;50.152;8.182;2023-04-21T07:59:54;97099.28;;;9.68;100.00
31771;BME280;18343;50.152;8.182;2023-04-21T08:02:39;97101.25;;;9.88;100.00
31771;BME280;18343;50.152;8.182;2023-04-21T08:05:24;97103.09;;;9.80;100.00
31771;BME280;18343;50.152;8.182;2023-04-21T08:08:09;97106.50;;;9.96;100.00
31771;BME280;18343;50.152;8.182;2023-04-21T08:10:53;97110.88;;;10.03;100.00
31771;BME280;18343;50.152;8.182;2023-04-21T08:13:40;97105.13;;;10.13;100.00
31771;BME280;18343;50.152;8.182;2023-04-21T08:16:26;97103.25;;;10.07;100.00
31771;BME280;18343;50.152;8.182;2023-04-21T08:19:11;97101.31;;;9.94;100.00
31771;BME280;18343;50.152;8.182;2023-04-21T08:21:56;97094.75;;;10.31;100.00
31771;BME280;18343;50.152;8.182;2023-04-21T08:24:40;97087.16;;;10.48;100.00
31771;BME280;18343;50.152;8.182;2023-04-21T08:27:25;97093.88;;;10.78;100.00
31771;BME280;18343;50.152;8.182;2023-04-21T08:30:11;97100.28;;;10.77;100.00
31771;BME280;18343;50.152;8.182;2023-04-21T08:32:57;97104.59;;;10.59;100.00
31771;BME280;18343;50.152;8.182;2023-04-21T08:35:42;97103.34;;;10.68;100.00
31771;BME280;18343;50.152;8.182;2023-04-21T08:38:27;97093.09;;;10.98;100.00
31771;BME280;18343;50.152;8.182;2023-04-21T08:41:12;97102.66;;;11.07;100.00
31771;BME280;18343;50.152;8.182;2023-04-21T08:43:57;97108.41;;;10.97;100.00
31771;BME280;18343;50.152;8.182;2023-04-21T08:46:43;97116.75;;;11.15;100.00
31771;BME280;18343;50.152;8.182;2023-04-21T08:49:31;97107.06;;;11.41;100.00
31771;BME280;18343;50.152;8.182;2023-04-21T08:52:17;97102.09;;;11.38;100.00
31771;BME280;18343;50.152;8.182;2023-04-21T08:55:02;97100.81;;;11.14;100.00
31771;BME280;18343;50.152;8.182;2023-04-21T08:57:48;97103.72;;;11.32;100.00
31771;BME280;18343;50.152;8.182;2023-04-21T09:00:32;97098.97;;;11.34;100.00
31771;BME280;18343;50.152;8.182;2023-04-21T09:03:21;97100.41;;;11.24;100.00
31771;BME280;18343;50.152;8.182;2023-04-21T09:06:09;97099.47;;;10.77;100.00
31771;BME280;18343;50.152;8.182;2023-04-21T09:08:54;97093.41;;;10.55;100.00
31771;BME280;18343;50.152;8.182;2023-04-21T09:11:40;97097.84;;;10.82;100.00
31771;BME280;18343;50.152;8.182;2023-04-21T09:14:30;97096.84;;;11.03;100.00
31771;BME280;18343;50.152;8.182;2023-04-21T09:17:16;97092.13;;;11.12;100.00
31771;BME280;18343;50.152;8.182;2023-04-21T09:20:14;97091.72;;;11.68;100.00
31771;BME280;18343;50.152;8.182;2023-04-21T09:23:04;97087.78;;;11.83;100.00
31771;BME280;18343;50.152;8.182;2023-04-21T09:25:48;97084.25;;;11.57;100.00
31771;BME280;18343;50.152;8.182;2023-04-21T09:28:33;97086.13;;;11.76;100.00
31771;BME280;18343;50.152;8.182;2023-04-21T09:31:19;97082.41;;;12.03;100.00
31771;BME280;18343;50.152;8.182;2023-04-21T09:34:17;97087.66;;;12.43;100.00
31771;BME280;18343;50.152;8.182;2023-04-21T09:37:03;97076.78;;;12.63;100.00
31771;BME280;18343;50.152;8.182;2023-04-21T09:39:50;97070.31;;;12.77;100.00
31771;BME280;18343;50.152;8.182;2023-04-21T09:42:34;97079.94;;;12.98;100.00
31771;BME280;18343;50.152;8.182;2023-04-21T09:45:19;97078.28;;;13.35;100.00
31771;BME280;18343;50.152;8.182;2023-04-21T09:48:09;97072.66;;;13.36;100.00
31771;BME280;18343;50.152;8.182;2023-04-21T09:50:58;97067.56;;;13.71;100.00
31771;BME280;18343;50.152;8.182;2023-04-21T09:53:44;97068.03;;;13.43;100.00
31771;BME280;18343;50.152;8.182;2023-04-21T09:56:32;97077.25;;;13.36;100.00
31771;BME280;18343;50.152;8.182;2023-04-21T09:59:25;97070.59;;;13.63;100.00
31771;BME280;18343;50.152;8.182;2023-04-21T10:02:11;97064.28;;;13.94;100.00
31771;BME280;18343;50.152;8.182;2023-04-21T10:04:56;97063.13;;;14.02;100.00
31771;BME280;18343;50.152;8.182;2023-04-21T10:07:42;97066.53;;;14.15;100.00
31771;BME280;18343;50.152;8.182;2023-04-21T10:10:28;97063.69;;;13.67;100.00
31771;BME280;18343;50.152;8.182;2023-04-21T10:13:15;97051.94;;;13.98;100.00
31771;BME280;18343;50.152;8.182;2023-04-21T10:16:04;97057.59;;;14.33;100.00
31771;BME280;18343;50.152;8.182;2023-04-21T10:18:49;97058.34;;;14.40;100.00
31771;BME280;18343;50.152;8.182;2023-04-21T10:21:35;97055.38;;;14.48;100.00
31771;BME280;18343;50.152;8.182;2023-04-21T10:24:21;97047.56;;;14.22;100.00
31771;BME280;18343;50.152;8.182;2023-04-21T10:27:08;97052.25;;;13.90;100.00
31771;BME280;18343;50.152;8.182;2023-04-21T10:29:54;97054.56;;;13.86;100.00
31771;BME280;18343;50.152;8.182;2023-04-21T10:32:42;97053.50;;;13.87;100.00
31771;BME280;18343;50.152;8.182;2023-04-21T10:36:00;97044.59;;;14.60;100.00
31771;BME280;18343;50.152;8.182;2023-04-21T10:38:54;97047.53;;;14.59;100.00
31771;BME280;18343;50.152;8.182;2023-04-21T10:41:39;97052.28;;;14.63;100.00
31771;BME280;18343;50.152;8.182;2023-04-21T10:44:28;97045.69;;;14.41;100.00
31771;BME280;18343;50.152;8.182;2023-04-21T10:47:24;97052.69;;;14.23;100.00
31771;BME280;18343;50.152;8.182;2023-04-21T10:50:21;97050.44;;;14.02;100.00
31771;BME280;18343;50.152;8.182;2023-04-21T10:53:09;97050.53;;;14.32;100.00
31771;BME280;18343;50.152;8.182;2023-04-21T10:55:54;97046.06;;;14.44;100.00
31771;BME280;18343;50.152;8.182;2023-04-21T10:58:39;97041.84;;;14.78;100.00
31771;BME280;18343;50.152;8.182;2023-04-21T11:01:23;97041.63;;;14.80;100.00
31771;BME280;18343;50.152;8.182;2023-04-21T11:04:14;97032.66;;;14.68;100.00
31771;BME280;18343;50.152;8.182;2023-04-21T11:07:07;97027.69;;;14.65;100.00
31771;BME280;18343;50.152;8.182;2023-04-21T11:09:57;97025.28;;;14.75;100.00
31771;BME280;18343;50.152;8.182;2023-04-21T11:12:42;97026.13;;;14.87;100.00
31771;BME280;18343;50.152;8.182;2023-04-21T11:15:27;97020.47;;;14.77;97.94
31771;BME280;18343;50.152;8.182;2023-04-21T11:18:12;97024.25;;;14.87;100.00
31771;BME280;18343;50.152;8.182;2023-04-21T11:21:12;97019.69;;;15.30;100.00
31771;BME280;18343;50.152;8.182;2023-04-21T11:23:58;97012.16;;;15.43;100.00
31771;BME280;18343;50.152;8.182;2023-04-21T11:26:43;97019.03;;;15.69;100.00
31771;BME280;18343;50.152;8.182;2023-04-21T11:29:28;97012.53;;;15.94;100.00
31771;BME280;18343;50.152;8.182;2023-04-21T11:32:15;97012.50;;;16.17;100.00
31771;BME280;18343;50.152;8.182;2023-04-21T11:35:01;97011.56;;;16.23;100.00
31771;BME280;18343;50.152;8.182;2023-04-21T11:37:49;97003.69;;;16.10;100.00
31771;BME280;18343;50.152;8.182;2023-04-21T11:40:45;96991.56;;;16.01;100.00
31771;BME280;18343;50.152;8.182;2023-04-21T11:43:30;97006.88;;;15.72;98.99
31771;BME280;18343;50.152;8.182;2023-04-21T11:46:23;97007.72;;;15.72;99.60
31771;BME280;18343;50.152;8.182;2023-04-21T11:49:14;97005.13;;;15.77;99.43
31771;BME280;18343;50.152;8.182;2023-04-21T11:51:59;97018.31;;;15.74;99.17
31771;BME280;18343;50.152;8.182;2023-04-21T11:54:45;97013.03;;;15.79;99.69
31771;BME280;18343;50.152;8.182;2023-04-21T11:57:31;97011.47;;;15.60;98.11
31771;BME280;18343;50.152;8.182;2023-04-21T12:00:18;97006.97;;;15.53;99.38
31771;BME280;18343;50.152;8.182;2023-04-21T12:03:08;96999.81;;;15.71;99.54
31771;BME280;18343;50.152;8.182;2023-04-21T12:05:55;97001.13;;;15.80;98.93
31771;BME280;18343;50.152;8.182;2023-04-21T12:08:40;97003.22;;;15.89;98.98
31771;BME280;18343;50.152;8.182;2023-04-21T12:11:29;96997.69;;;15.96;97.28
31771;BME280;18343;50.152;8.182;2023-04-21T12:14:14;96996.16;;;16.12;98.31
31771;BME280;18343;50.152;8.182;2023-04-21T12:16:59;96987.06;;;16.06;96.93
31771;BME280;18343;50.152;8.182;2023-04-21T12:19:44;96996.97;;;15.89;96.14
31771;BME280;18343;50.152;8.182;2023-04-21T12:22:29;96988.38;;;15.92;95.30
31771;BME280;18343;50.152;8.182;2023-04-21T12:25:14;96983.44;;;15.77;94.48
31771;BME280;18343;50.152;8.182;2023-04-21T12:28:00;96994.06;;;15.79;95.23
31771;BME280;18343;50.152;8.182;2023-04-21T12:30:44;96991.56;;;15.77;94.92
31771;BME280;18343;50.152;8.182;2023-04-21T12:33:29;96983.31;;;15.84;95.37
31771;BME280;18343;50.152;8.182;2023-04-21T12:42:01;96983.72;;;14.81;100.00
31771;BME280;18343;50.152;8.182;2023-04-21T12:45:00;96974.47;;;15.53;98.30
31771;BME280;18343;50.152;8.182;2023-04-21T12:48:02;96991.06;;;15.92;95.34
31771;BME280;18343;50.152;8.182;2023-04-21T12:50:52;96977.81;;;16.19;94.06
31771;BME280;18343;50.152;8.182;2023-04-21T12:53:53;96971.00;;;16.56;95.27
31771;BME280;18343;50.152;8.182;2023-04-21T12:56:41;96971.59;;;16.58;91.55
31771;BME280;18343;50.152;8.182;2023-04-21T12:59:29;96966.28;;;16.52;92.81
31771;BME280;18343;50.152;8.182;2023-04-21T13:02:15;96971.78;;;16.69;93.22
31771;BME280;18343;50.152;8.182;2023-04-21T13:05:24;96961.44;;;16.66;91.80
31771;BME280;18343;50.152;8.182;2023-04-21T13:08:17;96961.81;;;16.86;92.09
31771;BME280;18343;50.152;8.182;2023-04-21T13:11:02;96960.25;;;16.90;90.86
31771;BME280;18343;50.152;8.182;2023-04-21T13:14:01;96957.50;;;17.18;90.71
31771;BME280;18343;50.152;8.182;2023-04-21T13:16:48;96957.00;;;17.38;90.23
31771;BME280;18343;50.152;8.182;2023-04-21T13:19:43;96949.84;;;17.49;90.30
31771;BME280;18343;50.152;8.182;2023-04-21T13:22:51;96943.06;;;17.68;90.90
31771;BME280;18343;50.152;8.182;2023-04-21T13:27:04;96944.69;;;17.86;89.10
31771;BME280;18343;50.152;8.182;2023-04-21T13:29:14;96945.19;;;17.83;87.26
31771;BME280;18343;50.152;8.182;2023-04-21T13:32:06;96947.78;;;17.73;86.58
31771;BME280;18343;50.152;8.182;2023-04-21T13:35:17;96944.16;;;17.50;86.22
31771;BME280;18343;50.152;8.182;2023-04-21T13:38:16;96942.25;;;17.68;85.80
31771;BME280;18343;50.152;8.182;2023-04-21T13:41:12;96930.31;;;17.90;86.63
31771;BME280;18343;50.152;8.182;2023-04-21T13:44:12;96926.69;;;18.02;84.97
31771;BME280;18343;50.152;8.182;2023-04-21T13:47:07;96924.72;;;18.19;85.58
31771;BME280;18343;50.152;8.182;2023-04-21T13:49:57;96928.81;;;18.21;84.96
31771;BME280;18343;50.152;8.182;2023-04-21T13:52:47;96918.06;;;18.32;85.00
31771;BME280;18343;50.152;8.182;2023-04-21T13:55:41;96911.22;;;18.29;82.51
31771;BME280;18343;50.152;8.182;2023-04-21T13:58:42;96909.53;;;18.23;82.98
31771;BME280;18343;50.152;8.182;2023-04-21T14:01:47;96896.91;;;18.17;80.47
31771;BME280;18343;50.152;8.182;2023-04-21T14:04:44;96893.50;;;18.26;80.95
31771;BME280;18343;50.152;8.182;2023-04-21T14:07:45;96891.16;;;18.13;79.66
31771;BME280;18343;50.152;8.182;2023-04-21T14:13:51;96882.13;;;18.30;79.45
31771;BME280;18343;50.152;8.182;2023-04-21T14:17:05;96875.84;;;18.29;79.61
31771;BME280;18343;50.152;8.182;2023-04-21T14:20:18;96876.03;;;18.22;79.38
31771;BME280;18343;50.152;8.182;2023-04-21T14:23:15;96869.56;;;18.07;77.53
31771;BME280;18343;50.152;8.182;2023-04-21T14:26:10;96867.94;;;18.06;77.47
31771;BME280;18343;50.152;8.182;2023-04-21T14:29:01;96875.41;;;17.93;77.07
31771;BME280;18343;50.152;8.182;2023-04-21T14:31:49;96870.03;;;17.77;76.64
31771;BME280;18343;50.152;8.182;2023-04-21T14:34:59;96864.84;;;17.97;77.25
31771;BME280;18343;50.152;8.182;2023-04-21T14:37:49;96866.03;;;18.06;76.69
31771;BME280;18343;50.152;8.182;2023-04-21T14:40:34;96859.16;;;17.99;76.11
31771;BME280;18343;50.152;8.182;2023-04-21T14:43:36;96863.41;;;17.89;76.48
31771;BME280;18343;50.152;8.182;2023-04-21T14:46:24;96855.06;;;17.96;75.28
31771;BME280;18343;50.152;8.182;2023-04-21T14:49:12;96845.78;;;18.19;76.67
31771;BME280;18343;50.152;8.182;2023-04-21T14:51:57;96842.19;;;18.40;75.74